sensor_id;sensor_type;location;lat;lon;timestamp;pressure;altitude;pressure_sealevel;temperature;humidity
12077;BME280;12420;42.676;23.262;2023-05-03T00:00:11;94830.50;;;13.21;55.51
12077;BME280;12420;42.676;23.262;2023-05-03T00:02:38;94829.88;;;13.15;55.50
12077;BME280;12420;42.676;23.262;2023-05-03T00:05:05;94819.78;;;13.25;54.97
12077;BME280;12420;42.676;23.262;2023-05-03T00:07:34;94834.03;;;13.21;54.65
12077;BME280;12420;42.676;23.262;2023-05-03T00:10:00;94807.59;;;12.94;54.56
12077;BME280;12420;42.676;23.262;2023-05-03T00:12:27;94815.59;;;12.97;54.41
12077;BME280;12420;42.676;23.262;2023-05-03T00:14:54;94836.34;;;12.96;54.50
12077;BME280;12420;42.676;23.262;2023-05-03T00:17:23;94823.75;;;12.95;54.34
12077;BME280;12420;42.676;23.262;2023-05-03T00:19:50;94814.59;;;12.74;54.47
12077;BME280;12420;42.676;23.262;2023-05-03T00:22:18;94842.31;;;12.87;54.25
12077;BME280;12420;42.676;23.262;2023-05-03T00:24:44;94834.47;;;12.78;54.68
12077;BME280;12420;42.676;23.262;2023-05-03T00:27:11;94833.41;;;12.68;54.68
12077;BME280;12420;42.676;23.262;2023-05-03T00:29:38;94742.91;;;11.98;55.12
12077;BME280;12420;42.676;23.262;2023-05-03T00:32:05;94781.56;;;12.09;55.73
12077;BME280;12420;42.676;23.262;2023-05-03T00:34:33;94851.13;;;12.78;54.67
12077;BME280;12420;42.676;23.262;2023-05-03T00:37:00;94846.44;;;12.59;55.62
12077;BME280;12420;42.676;23.262;2023-05-03T00:39:28;94852.09;;;12.67;54.92
12077;BME280;12420;42.676;23.262;2023-05-03T00:41:56;94864.53;;;12.87;55.23
12077;BME280;12420;42.676;23.262;2023-05-03T00:44:22;94856.97;;;12.74;54.58
12077;BME280;12420;42.676;23.262;2023-05-03T00:46:49;94812.81;;;12.36;54.34
12077;BME280;12420;42.676;23.262;2023-05-03T00:49:17;94874.19;;;12.73;54.67
12077;BME280;12420;42.676;23.262;2023-05-03T00:51:46;94850.72;;;12.47;54.38
12077;BME280;12420;42.676;23.262;2023-05-03T00:54:12;94865.00;;;12.51;55.11
12077;BME280;12420;42.676;23.262;2023-05-03T00:56:40;94864.59;;;12.47;55.04
12077;BME280;12420;42.676;23.262;2023-05-03T00:59:07;94861.94;;;12.55;54.66
12077;BME280;12420;42.676;23.262;2023-05-03T01:01:33;94853.91;;;12.38;54.23
12077;BME280;12420;42.676;23.262;2023-05-03T01:04:01;94852.63;;;12.26;54.60
12077;BME280;12420;42.676;23.262;2023-05-03T01:06:37;94853.91;;;12.38;54.61
12077;BME280;12420;42.676;23.262;2023-05-03T01:09:20;94859.91;;;12.42;55.02
12077;BME280;12420;42.676;23.262;2023-05-03T01:11:55;94811.00;;;12.12;54.29
12077;BME280;12420;42.676;23.262;2023-05-03T01:14:32;94840.78;;;12.25;54.76
12077;BME280;12420;42.676;23.262;2023-05-03T01:17:07;94842.69;;;12.17;55.24
12077;BME280;12420;42.676;23.262;2023-05-03T01:19:36;94842.59;;;12.23;55.15
12077;BME280;12420;42.676;23.262;2023-05-03T01:22:14;94849.44;;;12.22;55.45
12077;BME280;12420;42.676;23.262;2023-05-03T01:24:46;94846.78;;;12.29;55.47
12077;BME280;12420;42.676;23.262;2023-05-03T01:27:18;94838.56;;;12.24;55.38
12077;BME280;12420;42.676;23.262;2023-05-03T01:29:45;94841.53;;;12.12;55.99
12077;BME280;12420;42.676;23.262;2023-05-03T01:32:16;94840.22;;;12.13;55.62
12077;BME280;12420;42.676;23.262;2023-05-03T01:34:50;94864.78;;;12.09;55.99
12077;BME280;12420;42.676;23.262;2023-05-03T01:37:20;94799.88;;;11.86;55.78
12077;BME280;12420;42.676;23.262;2023-05-03T01:39:50;94815.88;;;11.93;55.71
12077;BME280;12420;42.676;23.262;2023-05-03T01:42:20;94819.84;;;12.11;55.90
12077;BME280;12420;42.676;23.262;2023-05-03T01:44:49;94835.13;;;12.18;56.17
12077;BME280;12420;42.676;23.262;2023-05-03T01:47:16;94791.69;;;12.07;55.35
12077;BME280;12420;42.676;23.262;2023-05-03T01:49:42;94822.75;;;12.32;55.35
12077;BME280;12420;42.676;23.262;2023-05-03T01:52:09;94822.13;;;12.39;55.05
12077;BME280;12420;42.676;23.262;2023-05-03T01:54:36;94792.22;;;12.05;55.08
12077;BME280;12420;42.676;23.262;2023-05-03T01:57:03;94808.44;;;12.14;55.37
12077;BME280;12420;42.676;23.262;2023-05-03T01:59:31;94792.00;;;12.16;55.45
12077;BME280;12420;42.676;23.262;2023-05-03T02:01:58;94774.09;;;12.04;55.46
12077;BME280;12420;42.676;23.262;2023-05-03T02:04:24;94799.91;;;12.12;56.15
12077;BME280;12420;42.676;23.262;2023-05-03T02:06:51;94799.56;;;12.03;56.43
12077;BME280;12420;42.676;23.262;2023-05-03T02:09:18;94777.03;;;11.93;56.43
12077;BME280;12420;42.676;23.262;2023-05-03T02:11:45;94766.88;;;11.69;56.68
12077;BME280;12420;42.676;23.262;2023-05-03T02:14:12;94751.91;;;11.91;56.10
12077;BME280;12420;42.676;23.262;2023-05-03T02:16:40;94759.78;;;11.87;56.38
12077;BME280;12420;42.676;23.262;2023-05-03T02:19:07;94786.13;;;12.07;56.55
12077;BME280;12420;42.676;23.262;2023-05-03T02:21:35;94777.94;;;12.01;56.84
12077;BME280;12420;42.676;23.262;2023-05-03T02:24:02;94751.00;;;11.83;56.75
12077;BME280;12420;42.676;23.262;2023-05-03T02:26:29;94781.97;;;12.00;57.23
12077;BME280;12420;42.676;23.262;2023-05-03T02:28:55;94781.50;;;11.83;57.45
12077;BME280;12420;42.676;23.262;2023-05-03T02:31:22;94697.28;;;11.27;57.69
12077;BME280;12420;42.676;23.262;2023-05-03T02:33:52;94784.59;;;11.79;57.82
12077;BME280;12420;42.676;23.262;2023-05-03T02:36:19;94779.75;;;11.53;58.62
12077;BME280;12420;42.676;23.262;2023-05-03T02:38:47;94759.91;;;11.49;58.23
12077;BME280;12420;42.676;23.262;2023-05-03T02:41:13;94794.09;;;11.70;59.18
12077;BME280;12420;42.676;23.262;2023-05-03T02:43:40;94776.38;;;11.60;58.61
12077;BME280;12420;42.676;23.262;2023-05-03T02:46:08;94793.06;;;11.55;58.80
12077;BME280;12420;42.676;23.262;2023-05-03T02:48:34;94808.78;;;11.65;58.64
12077;BME280;12420;42.676;23.262;2023-05-03T02:51:04;94751.69;;;11.11;58.94
12077;BME280;12420;42.676;23.262;2023-05-03T02:53:31;94793.16;;;11.49;59.88
12077;BME280;12420;42.676;23.262;2023-05-03T02:55:58;94774.94;;;11.54;59.55
12077;BME280;12420;42.676;23.262;2023-05-03T02:58:25;94786.38;;;11.50;59.19
12077;BME280;12420;42.676;23.262;2023-05-03T03:00:51;94794.44;;;11.48;59.40
12077;BME280;12420;42.676;23.262;2023-05-03T03:03:18;94784.84;;;11.49;59.75
12077;BME280;12420;42.676;23.262;2023-05-03T03:05:45;94813.44;;;11.57;60.11
12077;BME280;12420;42.676;23.262;2023-05-03T03:08:13;94813.44;;;11.57;59.87
12077;BME280;12420;42.676;23.262;2023-05-03T03:10:40;94802.53;;;11.46;59.89
12077;BME280;12420;42.676;23.262;2023-05-03T03:13:07;94775.66;;;11.41;59.84
12077;BME280;12420;42.676;23.262;2023-05-03T03:15:34;94810.16;;;11.59;60.09
12077;BME280;12420;42.676;23.262;2023-05-03T03:18:01;94819.56;;;11.69;60.06
12077;BME280;12420;42.676;23.262;2023-05-03T03:20:28;94780.59;;;11.48;59.88
12077;BME280;12420;42.676;23.262;2023-05-03T03:22:55;94811.75;;;11.67;59.67
12077;BME280;12420;42.676;23.262;2023-05-03T03:25:23;94815.31;;;11.81;60.02
12077;BME280;12420;42.676;23.262;2023-05-03T03:27:50;94818.47;;;11.91;59.67
12077;BME280;12420;42.676;23.262;2023-05-03T03:30:17;94815.88;;;11.93;58.69
12077;BME280;12420;42.676;23.262;2023-05-03T03:32:44;94813.28;;;11.82;59.12
12077;BME280;12420;42.676;23.262;2023-05-03T03:35:10;94818.25;;;12.02;58.85
12077;BME280;12420;42.676;23.262;2023-05-03T03:37:38;94823.69;;;11.94;58.60
12077;BME280;12420;42.676;23.262;2023-05-03T03:40:06;94835.25;;;11.80;59.13
12077;BME280;12420;42.676;23.262;2023-05-03T03:42:35;94836.13;;;11.88;59.16
12077;BME280;12420;42.676;23.262;2023-05-03T03:45:03;94835.34;;;11.74;59.74
12077;BME280;12420;42.676;23.262;2023-05-03T03:47:30;94840.56;;;11.78;59.40
12077;BME280;12420;42.676;23.262;2023-05-03T03:49:57;94804.94;;;11.55;59.15
12077;BME280;12420;42.676;23.262;2023-05-03T03:52:25;94827.22;;;11.63;59.92
12077;BME280;12420;42.676;23.262;2023-05-03T03:54:51;94824.03;;;11.72;59.98
12077;BME280;12420;42.676;23.262;2023-05-03T03:57:18;94827.78;;;11.74;59.53
12077;BME280;12420;42.676;23.262;2023-05-03T03:59:46;94847.84;;;11.81;59.11
12077;BME280;12420;42.676;23.262;2023-05-03T04:02:13;94841.09;;;11.63;59.88
12077;BME280;12420;42.676;23.262;2023-05-03T04:04:40;94848.72;;;11.57;59.85
12077;BME280;12420;42.676;23.262;2023-05-03T04:07:08;94856.09;;;11.54;60.54
12077;BME280;12420;42.676;23.262;2023-05-03T04:09:34;94851.72;;;11.59;60.33
12077;BME280;12420;42.676;23.262;2023-05-03T04:12:03;94875.72;;;11.56;60.06
12077;BME280;12420;42.676;23.262;2023-05-03T04:14:30;94842.09;;;11.46;60.34
12077;BME280;12420;42.676;23.262;2023-05-03T04:16:58;94853.16;;;11.65;60.77
12077;BME280;12420;42.676;23.262;2023-05-03T04:19:28;94847.25;;;11.56;60.48
12077;BME280;12420;42.676;23.262;2023-05-03T04:21:55;94862.72;;;11.64;60.34
12077;BME280;12420;42.676;23.262;2023-05-03T04:24:22;94843.00;;;11.36;60.89
12077;BME280;12420;42.676;23.262;2023-05-03T04:26:49;94886.41;;;11.65;60.72
12077;BME280;12420;42.676;23.262;2023-05-03T04:29:16;94885.66;;;11.65;60.37
12077;BME280;12420;42.676;23.262;2023-05-03T04:31:44;94899.09;;;11.61;60.59
12077;BME280;12420;42.676;23.262;2023-05-03T04:34:13;94887.25;;;11.60;60.44
12077;BME280;12420;42.676;23.262;2023-05-03T04:36:41;94900.66;;;11.56;61.06
12077;BME280;12420;42.676;23.262;2023-05-03T04:39:10;94900.06;;;11.63;62.40
12077;BME280;12420;42.676;23.262;2023-05-03T04:41:37;94905.28;;;11.67;61.01
12077;BME280;12420;42.676;23.262;2023-05-03T04:44:04;94904.41;;;11.59;61.46
12077;BME280;12420;42.676;23.262;2023-05-03T04:46:31;94924.16;;;11.68;60.99
12077;BME280;12420;42.676;23.262;2023-05-03T04:48:58;94865.28;;;11.30;60.88
12077;BME280;12420;42.676;23.262;2023-05-03T04:51:26;94911.75;;;11.56;61.30
12077;BME280;12420;42.676;23.262;2023-05-03T04:53:53;94920.56;;;11.73;62.29
12077;BME280;12420;42.676;23.262;2023-05-03T04:56:20;94923.63;;;11.70;62.02
12077;BME280;12420;42.676;23.262;2023-05-03T04:58:50;94925.56;;;11.75;61.28
12077;BME280;12420;42.676;23.262;2023-05-03T05:01:17;94926.84;;;11.74;61.51
12077;BME280;12420;42.676;23.262;2023-05-03T05:03:50;94926.41;;;11.89;61.16
12077;BME280;12420;42.676;23.262;2023-05-03T05:06:17;94932.84;;;11.78;61.45
12077;BME280;12420;42.676;23.262;2023-05-03T05:08:46;94947.09;;;11.69;62.58
12077;BME280;12420;42.676;23.262;2023-05-03T05:11:13;94938.25;;;11.70;64.37
12077;BME280;12420;42.676;23.262;2023-05-03T05:13:40;94933.38;;;11.77;66.67
12077;BME280;12420;42.676;23.262;2023-05-03T05:16:06;94947.84;;;11.69;69.63
12077;BME280;12420;42.676;23.262;2023-05-03T05:18:33;94939.31;;;11.48;70.75
12077;BME280;12420;42.676;23.262;2023-05-03T05:21:00;94950.09;;;11.52;73.31
12077;BME280;12420;42.676;23.262;2023-05-03T05:23:27;94946.00;;;11.40;74.35
12077;BME280;12420;42.676;23.262;2023-05-03T05:25:55;94905.41;;;11.04;75.15
12077;BME280;12420;42.676;23.262;2023-05-03T05:28:25;94930.19;;;10.97;74.34
12077;BME280;12420;42.676;23.262;2023-05-03T05:30:51;94955.72;;;11.08;76.37
12077;BME280;12420;42.676;23.262;2023-05-03T05:33:18;94954.00;;;11.05;78.80
12077;BME280;12420;42.676;23.262;2023-05-03T05:35:46;94940.81;;;10.93;75.84
12077;BME280;12420;42.676;23.262;2023-05-03T05:38:13;94948.38;;;11.11;76.68
12077;BME280;12420;42.676;23.262;2023-05-03T05:40:40;94959.22;;;11.09;75.94
12077;BME280;12420;42.676;23.262;2023-05-03T05:43:08;94939.09;;;10.90;76.12
12077;BME280;12420;42.676;23.262;2023-05-03T05:45:35;94961.00;;;11.06;77.05
12077;BME280;12420;42.676;23.262;2023-05-03T05:48:02;94890.09;;;10.60;73.22
12077;BME280;12420;42.676;23.262;2023-05-03T05:50:29;94953.53;;;11.01;74.97
12077;BME280;12420;42.676;23.262;2023-05-03T05:52:56;94947.41;;;11.08;75.60
12077;BME280;12420;42.676;23.262;2023-05-03T05:55:23;94942.69;;;11.03;76.43
12077;BME280;12420;42.676;23.262;2023-05-03T05:57:50;94952.78;;;11.01;75.50
12077;BME280;12420;42.676;23.262;2023-05-03T06:00:19;94954.06;;;11.00;77.73
12077;BME280;12420;42.676;23.262;2023-05-03T06:02:46;94947.47;;;11.03;76.75
12077;BME280;12420;42.676;23.262;2023-05-03T06:05:13;94967.75;;;11.11;75.24
12077;BME280;12420;42.676;23.262;2023-05-03T06:07:39;94941.69;;;11.01;78.26
12077;BME280;12420;42.676;23.262;2023-05-03T06:10:07;94963.03;;;11.06;76.59
12077;BME280;12420;42.676;23.262;2023-05-03T06:12:34;94955.78;;;11.03;77.76
12077;BME280;12420;42.676;23.262;2023-05-03T06:15:01;94954.47;;;11.10;76.96
12077;BME280;12420;42.676;23.262;2023-05-03T06:17:29;94969.50;;;11.14;78.16
12077;BME280;12420;42.676;23.262;2023-05-03T06:19:56;94905.19;;;10.59;80.20
12077;BME280;12420;42.676;23.262;2023-05-03T06:22:23;94950.94;;;11.28;77.74
12077;BME280;12420;42.676;23.262;2023-05-03T06:24:50;94934.53;;;11.30;81.26
12077;BME280;12420;42.676;23.262;2023-05-03T06:27:17;94954.63;;;11.55;77.79
12077;BME280;12420;42.676;23.262;2023-05-03T06:29:44;94952.31;;;11.72;75.19
12077;BME280;12420;42.676;23.262;2023-05-03T06:32:11;94940.50;;;11.91;73.83
12077;BME280;12420;42.676;23.262;2023-05-03T06:34:39;94947.84;;;11.69;73.97
12077;BME280;12420;42.676;23.262;2023-05-03T06:37:06;94932.25;;;11.66;75.46
12077;BME280;12420;42.676;23.262;2023-05-03T06:39:33;94910.53;;;11.70;73.54
12077;BME280;12420;42.676;23.262;2023-05-03T06:42:00;94942.72;;;11.92;73.41
12077;BME280;12420;42.676;23.262;2023-05-03T06:44:27;94933.78;;;12.00;73.06
12077;BME280;12420;42.676;23.262;2023-05-03T06:46:53;94934.72;;;11.89;74.12
12077;BME280;12420;42.676;23.262;2023-05-03T06:49:20;94924.41;;;12.03;74.62
12077;BME280;12420;42.676;23.262;2023-05-03T06:51:48;94916.69;;;11.95;75.48
12077;BME280;12420;42.676;23.262;2023-05-03T06:54:16;94914.09;;;11.84;75.05
12077;BME280;12420;42.676;23.262;2023-05-03T06:56:44;94903.09;;;11.79;74.39
12077;BME280;12420;42.676;23.262;2023-05-03T06:59:11;94921.28;;;11.93;74.47
12077;BME280;12420;42.676;23.262;2023-05-03T07:01:38;94917.38;;;11.83;76.01
12077;BME280;12420;42.676;23.262;2023-05-03T07:04:05;94909.88;;;11.97;75.26
12077;BME280;12420;42.676;23.262;2023-05-03T07:06:31;94900.22;;;12.16;75.18
12077;BME280;12420;42.676;23.262;2023-05-03T07:09:00;94900.66;;;12.21;73.26
12077;BME280;12420;42.676;23.262;2023-05-03T07:11:27;94907.47;;;12.06;73.82
12077;BME280;12420;42.676;23.262;2023-05-03T07:13:53;94905.16;;;12.24;73.24
12077;BME280;12420;42.676;23.262;2023-05-03T07:16:20;94876.72;;;12.04;72.93
12077;BME280;12420;42.676;23.262;2023-05-03T07:18:49;94922.66;;;12.32;72.86
12077;BME280;12420;42.676;23.262;2023-05-03T07:21:16;94949.22;;;12.27;73.32
12077;BME280;12420;42.676;23.262;2023-05-03T07:23:43;94917.97;;;12.27;72.30
12077;BME280;12420;42.676;23.262;2023-05-03T07:26:12;94919.03;;;12.24;73.39
12077;BME280;12420;42.676;23.262;2023-05-03T07:28:39;94939.34;;;12.58;71.51
12077;BME280;12420;42.676;23.262;2023-05-03T07:31:06;94906.00;;;12.32;72.05
12077;BME280;12420;42.676;23.262;2023-05-03T07:33:35;94898.13;;;12.49;70.85
12077;BME280;12420;42.676;23.262;2023-05-03T07:36:02;94939.56;;;12.87;70.73
12077;BME280;12420;42.676;23.262;2023-05-03T07:38:29;94935.72;;;12.90;69.89
12077;BME280;12420;42.676;23.262;2023-05-03T07:40:56;94931.22;;;13.00;68.55
12077;BME280;12420;42.676;23.262;2023-05-03T07:43:24;94932.94;;;13.03;70.35
12077;BME280;12420;42.676;23.262;2023-05-03T07:45:51;94925.25;;;12.96;70.21
12077;BME280;12420;42.676;23.262;2023-05-03T07:48:18;94931.97;;;13.01;70.97
12077;BME280;12420;42.676;23.262;2023-05-03T07:50:45;94943.31;;;13.03;71.09
12077;BME280;12420;42.676;23.262;2023-05-03T07:53:13;94940.31;;;12.88;71.48
12077;BME280;12420;42.676;23.262;2023-05-03T07:55:39;94948.00;;;12.95;70.91
12077;BME280;12420;42.676;23.262;2023-05-03T07:58:06;94939.13;;;12.96;71.80
12077;BME280;12420;42.676;23.262;2023-05-03T08:00:34;94945.09;;;13.14;73.05
12077;BME280;12420;42.676;23.262;2023-05-03T08:03:01;94919.56;;;13.15;71.22
12077;BME280;12420;42.676;23.262;2023-05-03T08:05:30;94919.66;;;13.10;71.29
12077;BME280;12420;42.676;23.262;2023-05-03T08:07:59;94946.91;;;13.24;72.51
12077;BME280;12420;42.676;23.262;2023-05-03T08:10:28;94952.38;;;13.30;71.14
12077;BME280;12420;42.676;23.262;2023-05-03T08:12:55;94942.41;;;13.35;71.84
12077;BME280;12420;42.676;23.262;2023-05-03T08:15:22;94949.16;;;13.26;72.17
12077;BME280;12420;42.676;23.262;2023-05-03T08:17:50;94950.34;;;13.31;73.36
12077;BME280;12420;42.676;23.262;2023-05-03T08:20:16;94967.72;;;13.58;70.78
12077;BME280;12420;42.676;23.262;2023-05-03T08:22:43;94955.00;;;13.83;70.38
12077;BME280;12420;42.676;23.262;2023-05-03T08:25:11;94928.69;;;13.84;70.53
12077;BME280;12420;42.676;23.262;2023-05-03T08:27:37;94966.97;;;14.13;69.33
12077;BME280;12420;42.676;23.262;2023-05-03T08:30:05;94962.75;;;14.19;67.74
12077;BME280;12420;42.676;23.262;2023-05-03T08:32:32;94961.88;;;14.45;68.32
12077;BME280;12420;42.676;23.262;2023-05-03T08:35:01;94960.06;;;14.48;66.20
12077;BME280;12420;42.676;23.262;2023-05-03T08:37:36;94955.59;;;14.52;67.69
12077;BME280;12420;42.676;23.262;2023-05-03T08:40:05;94958.16;;;14.43;67.64
12077;BME280;12420;42.676;23.262;2023-05-03T08:42:32;94934.03;;;14.45;68.75
12077;BME280;12420;42.676;23.262;2023-05-03T08:44:59;94945.06;;;14.80;67.44
12077;BME280;12420;42.676;23.262;2023-05-03T08:47:26;94954.28;;;15.03;66.75
12077;BME280;12420;42.676;23.262;2023-05-03T08:49:58;94953.84;;;15.20;66.32
12077;BME280;12420;42.676;23.262;2023-05-03T08:52:26;94961.41;;;15.12;64.99
12077;BME280;12420;42.676;23.262;2023-05-03T08:54:53;94963.38;;;14.96;65.19
12077;BME280;12420;42.676;23.262;2023-05-03T08:57:22;94966.84;;;15.17;64.74
12077;BME280;12420;42.676;23.262;2023-05-03T08:59:50;94962.31;;;15.43;64.33
12077;BME280;12420;42.676;23.262;2023-05-03T09:02:17;94971.63;;;15.46;64.67
12077;BME280;12420;42.676;23.262;2023-05-03T09:04:44;94973.28;;;15.49;62.87
12077;BME280;12420;42.676;23.262;2023-05-03T09:07:12;94953.50;;;15.31;63.01
12077;BME280;12420;42.676;23.262;2023-05-03T09:09:41;94975.50;;;15.43;63.03
12077;BME280;12420;42.676;23.262;2023-05-03T09:12:08;94948.22;;;15.56;62.19
12077;BME280;12420;42.676;23.262;2023-05-03T09:14:42;94944.44;;;15.82;63.64
12077;BME280;12420;42.676;23.262;2023-05-03T09:17:14;94941.81;;;15.92;61.62
12077;BME280;12420;42.676;23.262;2023-05-03T09:19:51;94948.38;;;16.25;61.69
12077;BME280;12420;42.676;23.262;2023-05-03T09:22:19;94940.00;;;16.33;61.13
12077;BME280;12420;42.676;23.262;2023-05-03T09:24:54;94946.53;;;16.43;59.67
12077;BME280;12420;42.676;23.262;2023-05-03T09:27:22;94942.63;;;16.46;61.34
12077;BME280;12420;42.676;23.262;2023-05-03T09:29:50;94940.19;;;16.81;58.22
12077;BME280;12420;42.676;23.262;2023-05-03T09:32:18;94907.25;;;16.57;58.11
12077;BME280;12420;42.676;23.262;2023-05-03T09:34:47;94920.63;;;16.81;58.15
12077;BME280;12420;42.676;23.262;2023-05-03T09:37:14;94922.13;;;16.90;59.88
12077;BME280;12420;42.676;23.262;2023-05-03T09:39:41;94894.19;;;16.59;59.67
12077;BME280;12420;42.676;23.262;2023-05-03T09:42:13;94922.69;;;16.58;60.46
12077;BME280;12420;42.676;23.262;2023-05-03T09:44:42;94911.31;;;16.71;59.23
12077;BME280;12420;42.676;23.262;2023-05-03T09:47:10;94910.38;;;16.84;58.37
12077;BME280;12420;42.676;23.262;2023-05-03T09:49:37;94904.41;;;16.95;61.27
12077;BME280;12420;42.676;23.262;2023-05-03T09:52:07;94909.81;;;16.93;60.27
12077;BME280;12420;42.676;23.262;2023-05-03T09:54:34;94922.22;;;17.23;59.27
12077;BME280;12420;42.676;23.262;2023-05-03T09:57:02;94891.41;;;17.30;57.35
12077;BME280;12420;42.676;23.262;2023-05-03T09:59:31;94900.78;;;17.25;57.01
12077;BME280;12420;42.676;23.262;2023-05-03T10:02:03;94914.56;;;17.23;59.02
12077;BME280;12420;42.676;23.262;2023-05-03T10:04:37;94901.34;;;17.16;59.13
12077;BME280;12420;42.676;23.262;2023-05-03T10:07:08;94898.16;;;17.20;58.33
12077;BME280;12420;42.676;23.262;2023-05-03T10:09:39;94906.16;;;17.31;58.29
12077;BME280;12420;42.676;23.262;2023-05-03T10:12:09;94901.88;;;17.22;58.48
12077;BME280;12420;42.676;23.262;2023-05-03T10:14:53;94898.84;;;17.35;60.96
12077;BME280;12420;42.676;23.262;2023-05-03T10:17:24;94892.00;;;17.62;59.27
12077;BME280;12420;42.676;23.262;2023-05-03T10:19:54;94897.31;;;17.83;57.83
12077;BME280;12420;42.676;23.262;2023-05-03T10:22:22;94855.50;;;17.52;57.76
12077;BME280;12420;42.676;23.262;2023-05-03T10:25:08;94867.34;;;17.68;56.66
12077;BME280;12420;42.676;23.262;2023-05-03T10:27:48;94866.09;;;17.94;56.58
12077;BME280;12420;42.676;23.262;2023-05-03T10:30:28;94865.78;;;17.82;57.25
12077;BME280;12420;42.676;23.262;2023-05-03T10:32:57;94849.94;;;17.77;57.90
12077;BME280;12420;42.676;23.262;2023-05-03T10:35:28;94861.13;;;17.77;57.18
12077;BME280;12420;42.676;23.262;2023-05-03T10:37:55;94857.69;;;17.61;58.14
12077;BME280;12420;42.676;23.262;2023-05-03T10:40:23;94849.00;;;17.74;58.22
12077;BME280;12420;42.676;23.262;2023-05-03T10:42:50;94836.25;;;17.89;57.41
12077;BME280;12420;42.676;23.262;2023-05-03T10:45:24;94851.78;;;18.07;59.02
12077;BME280;12420;42.676;23.262;2023-05-03T10:48:16;94860.38;;;18.09;58.61
12077;BME280;12420;42.676;23.262;2023-05-03T10:50:45;94852.94;;;18.04;57.46
12077;BME280;12420;42.676;23.262;2023-05-03T10:53:34;94849.84;;;18.17;58.32
12077;BME280;12420;42.676;23.262;2023-05-03T10:56:02;94859.03;;;18.35;57.36
12077;BME280;12420;42.676;23.262;2023-05-03T10:58:32;94860.13;;;18.15;58.54
12077;BME280;12420;42.676;23.262;2023-05-03T11:01:01;94862.53;;;18.18;58.06
12077;BME280;12420;42.676;23.262;2023-05-03T11:03:53;94862.75;;;17.88;58.01
12077;BME280;12420;42.676;23.262;2023-05-03T11:06:50;94863.16;;;17.84;59.27
12077;BME280;12420;42.676;23.262;2023-05-03T11:09:29;94862.53;;;17.93;59.45
12077;BME280;12420;42.676;23.262;2023-05-03T11:11:56;94856.00;;;17.91;59.39
12077;BME280;12420;42.676;23.262;2023-05-03T11:14:25;94838.28;;;18.13;60.61
12077;BME280;12420;42.676;23.262;2023-05-03T11:16:52;94849.03;;;18.25;58.79
12077;BME280;12420;42.676;23.262;2023-05-03T11:19:23;94838.44;;;18.40;58.39
12077;BME280;12420;42.676;23.262;2023-05-03T11:21:52;94801.63;;;18.19;58.52
12077;BME280;12420;42.676;23.262;2023-05-03T11:24:19;94841.09;;;18.56;57.85
12077;BME280;12420;42.676;23.262;2023-05-03T11:26:45;94839.09;;;18.49;56.13
12077;BME280;12420;42.676;23.262;2023-05-03T11:29:14;94831.41;;;18.32;56.28
12077;BME280;12420;42.676;23.262;2023-05-03T11:31:41;94832.66;;;18.38;56.24
12077;BME280;12420;42.676;23.262;2023-05-03T11:34:08;94823.50;;;18.38;55.57
12077;BME280;12420;42.676;23.262;2023-05-03T11:36:39;94828.13;;;18.43;57.09
12077;BME280;12420;42.676;23.262;2023-05-03T11:39:06;94836.66;;;18.53;54.51
12077;BME280;12420;42.676;23.262;2023-05-03T11:41:34;94834.16;;;18.57;56.38
12077;BME280;12420;42.676;23.262;2023-05-03T11:44:01;94821.81;;;18.60;54.64
12077;BME280;12420;42.676;23.262;2023-05-03T11:46:32;94809.91;;;18.52;55.01
12077;BME280;12420;42.676;23.262;2023-05-03T11:49:01;94805.66;;;18.68;56.30
12077;BME280;12420;42.676;23.262;2023-05-03T11:51:28;94799.13;;;18.65;55.73
12077;BME280;12420;42.676;23.262;2023-05-03T11:53:58;94805.22;;;18.54;57.18
12077;BME280;12420;42.676;23.262;2023-05-03T11:56:26;94815.44;;;18.42;57.72
12077;BME280;12420;42.676;23.262;2023-05-03T11:58:54;94795.81;;;18.59;58.11
12077;BME280;12420;42.676;23.262;2023-05-03T12:01:23;94788.94;;;18.78;57.27
12077;BME280;12420;42.676;23.262;2023-05-03T12:03:55;94763.44;;;18.49;58.84
12077;BME280;12420;42.676;23.262;2023-05-03T12:06:22;94683.25;;;18.18;59.63
12077;BME280;12420;42.676;23.262;2023-05-03T12:08:49;94787.31;;;19.02;60.56
12077;BME280;12420;42.676;23.262;2023-05-03T12:11:17;94775.56;;;18.86;58.70
12077;BME280;12420;42.676;23.262;2023-05-03T12:13:45;94788.25;;;18.52;60.68
12077;BME280;12420;42.676;23.262;2023-05-03T12:16:11;94756.22;;;18.03;60.92
12077;BME280;12420;42.676;23.262;2023-05-03T12:18:46;94782.63;;;18.17;61.45
12077;BME280;12420;42.676;23.262;2023-05-03T12:21:14;94753.06;;;17.82;62.83
12077;BME280;12420;42.676;23.262;2023-05-03T12:23:41;94767.97;;;17.84;63.03
12077;BME280;12420;42.676;23.262;2023-05-03T12:26:08;94776.97;;;17.75;63.07
12077;BME280;12420;42.676;23.262;2023-05-03T12:28:36;94757.91;;;17.56;63.90
12077;BME280;12420;42.676;23.262;2023-05-03T12:31:03;94753.25;;;17.26;65.35
12077;BME280;12420;42.676;23.262;2023-05-03T12:33:30;94755.03;;;17.06;65.73
12077;BME280;12420;42.676;23.262;2023-05-03T12:35:57;94772.91;;;17.10;66.69
12077;BME280;12420;42.676;23.262;2023-05-03T12:38:24;94773.56;;;16.93;67.27
12077;BME280;12420;42.676;23.262;2023-05-03T12:40:51;94761.34;;;16.66;67.88
12077;BME280;12420;42.676;23.262;2023-05-03T12:43:19;94763.81;;;16.54;68.94
12077;BME280;12420;42.676;23.262;2023-05-03T12:45:47;94717.44;;;15.88;71.19
12077;BME280;12420;42.676;23.262;2023-05-03T12:48:14;94738.22;;;16.02;72.18
12077;BME280;12420;42.676;23.262;2023-05-03T12:50:41;94754.22;;;16.17;72.83
12077;BME280;12420;42.676;23.262;2023-05-03T12:53:08;94761.25;;;16.25;73.06
12077;BME280;12420;42.676;23.262;2023-05-03T12:55:35;94731.94;;;15.86;73.35